sensor_id;sensor_type;location;lat;lon;timestamp;P1;durP1;ratioP1;P2;durP2;ratioP2
50483;SDS011;36409;52.168;20.878;2023-07-08T00:01:18;6.73;;;3.47;;
50483;SDS011;36409;52.168;20.878;2023-07-08T00:03:48;6.50;;;3.70;;
50483;SDS011;36409;52.168;20.878;2023-07-08T00:06:21;5.50;;;3.30;;
50483;SDS011;36409;52.168;20.878;2023-07-08T00:08:54;8.40;;;3.80;;
50483;SDS011;36409;52.168;20.878;2023-07-08T00:11:23;6.40;;;3.67;;
50483;SDS011;36409;52.168;20.878;2023-07-08T00:13:54;10.33;;;3.77;;
50483;SDS011;36409;52.168;20.878;2023-07-08T00:16:24;7.17;;;3.73;;
50483;SDS011;36409;52.168;20.878;2023-07-08T00:18:56;10.07;;;4.23;;
50483;SDS011;36409;52.168;20.878;2023-07-08T00:21:25;7.23;;;3.83;;
50483;SDS011;36409;52.168;20.878;2023-07-08T00:23:56;8.25;;;3.40;;
50483;SDS011;36409;52.168;20.878;2023-07-08T00:26:25;9.13;;;3.80;;
50483;SDS011;36409;52.168;20.878;2023-07-08T00:29:00;5.73;;;3.43;;
50483;SDS011;36409;52.168;20.878;2023-07-08T00:31:29;9.93;;;3.53;;
50483;SDS011;36409;52.168;20.878;2023-07-08T00:33:59;8.27;;;4.40;;
50483;SDS011;36409;52.168;20.878;2023-07-08T00:36:33;6.87;;;3.80;;
50483;SDS011;36409;52.168;20.878;2023-07-08T00:39:08;6.87;;;3.60;;
50483;SDS011;36409;52.168;20.878;2023-07-08T00:41:42;8.07;;;3.73;;
50483;SDS011;36409;52.168;20.878;2023-07-08T00:44:14;5.30;;;3.50;;
50483;SDS011;36409;52.168;20.878;2023-07-08T00:46:48;7.20;;;3.87;;
50483;SDS011;36409;52.168;20.878;2023-07-08T00:49:28;7.47;;;3.77;;
50483;SDS011;36409;52.168;20.878;2023-07-08T00:52:17;8.17;;;3.67;;
50483;SDS011;36409;52.168;20.878;2023-07-08T00:54:49;8.13;;;4.10;;
50483;SDS011;36409;52.168;20.878;2023-07-08T00:57:20;5.50;;;3.50;;
50483;SDS011;36409;52.168;20.878;2023-07-08T00:59:52;10.00;;;4.00;;
50483;SDS011;36409;52.168;20.878;2023-07-08T01:02:26;9.17;;;4.43;;
50483;SDS011;36409;52.168;20.878;2023-07-08T01:04:58;9.17;;;4.00;;
50483;SDS011;36409;52.168;20.878;2023-07-08T01:07:33;6.33;;;4.00;;
50483;SDS011;36409;52.168;20.878;2023-07-08T01:10:07;7.67;;;3.93;;
50483;SDS011;36409;52.168;20.878;2023-07-08T01:12:40;9.07;;;4.33;;
50483;SDS011;36409;52.168;20.878;2023-07-08T01:15:14;8.03;;;4.17;;
50483;SDS011;36409;52.168;20.878;2023-07-08T01:17:43;7.90;;;4.20;;
50483;SDS011;36409;52.168;20.878;2023-07-08T01:20:13;6.63;;;4.27;;
50483;SDS011;36409;52.168;20.878;2023-07-08T01:22:42;8.17;;;4.17;;
50483;SDS011;36409;52.168;20.878;2023-07-08T01:25:14;7.23;;;4.43;;
50483;SDS011;36409;52.168;20.878;2023-07-08T01:27:43;7.13;;;4.00;;
50483;SDS011;36409;52.168;20.878;2023-07-08T01:30:17;10.98;;;4.35;;
50483;SDS011;36409;52.168;20.878;2023-07-08T01:32:47;10.63;;;4.07;;
50483;SDS011;36409;52.168;20.878;2023-07-08T01:35:19;5.70;;;3.70;;
50483;SDS011;36409;52.168;20.878;2023-07-08T01:37:52;6.40;;;4.07;;
50483;SDS011;36409;52.168;20.878;2023-07-08T01:40:25;7.70;;;4.37;;
50483;SDS011;36409;52.168;20.878;2023-07-08T01:42:58;6.80;;;3.98;;
50483;SDS011;36409;52.168;20.878;2023-07-08T01:45:28;10.43;;;4.03;;
50483;SDS011;36409;52.168;20.878;2023-07-08T01:48:01;7.00;;;4.07;;
50483;SDS011;36409;52.168;20.878;2023-07-08T01:50:37;7.90;;;3.73;;
50483;SDS011;36409;52.168;20.878;2023-07-08T01:53:11;9.13;;;4.00;;
50483;SDS011;36409;52.168;20.878;2023-07-08T01:55:44;8.27;;;3.70;;
50483;SDS011;36409;52.168;20.878;2023-07-08T01:58:13;8.43;;;4.07;;
50483;SDS011;36409;52.168;20.878;2023-07-08T02:00:43;11.47;;;4.40;;
50483;SDS011;36409;52.168;20.878;2023-07-08T02:03:14;7.23;;;3.93;;
50483;SDS011;36409;52.168;20.878;2023-07-08T02:05:48;8.53;;;4.30;;
50483;SDS011;36409;52.168;20.878;2023-07-08T02:08:17;9.73;;;4.40;;
50483;SDS011;36409;52.168;20.878;2023-07-08T02:10:48;6.73;;;3.70;;
50483;SDS011;36409;52.168;20.878;2023-07-08T02:13:18;7.57;;;3.93;;
50483;SDS011;36409;52.168;20.878;2023-07-08T02:15:48;6.70;;;3.70;;
50483;SDS011;36409;52.168;20.878;2023-07-08T02:18:19;6.90;;;4.27;;
50483;SDS011;36409;52.168;20.878;2023-07-08T02:20:53;11.37;;;4.70;;
50483;SDS011;36409;52.168;20.878;2023-07-08T02:23:24;7.10;;;4.20;;
50483;SDS011;36409;52.168;20.878;2023-07-08T02:25:59;7.70;;;4.27;;
50483;SDS011;36409;52.168;20.878;2023-07-08T02:28:28;8.13;;;4.00;;
50483;SDS011;36409;52.168;20.878;2023-07-08T02:30:57;10.20;;;4.53;;
50483;SDS011;36409;52.168;20.878;2023-07-08T02:33:31;8.90;;;4.20;;
50483;SDS011;36409;52.168;20.878;2023-07-08T02:36:01;8.70;;;4.67;;
50483;SDS011;36409;52.168;20.878;2023-07-08T02:38:32;7.63;;;4.23;;
50483;SDS011;36409;52.168;20.878;2023-07-08T02:41:01;9.60;;;4.83;;
50483;SDS011;36409;52.168;20.878;2023-07-08T02:43:31;9.47;;;4.77;;
50483;SDS011;36409;52.168;20.878;2023-07-08T02:46:00;7.67;;;4.20;;
50483;SDS011;36409;52.168;20.878;2023-07-08T02:48:31;8.00;;;4.70;;
50483;SDS011;36409;52.168;20.878;2023-07-08T02:51:00;11.67;;;4.27;;
50483;SDS011;36409;52.168;20.878;2023-07-08T02:53:31;9.33;;;4.43;;
50483;SDS011;36409;52.168;20.878;2023-07-08T02:56:00;8.03;;;4.60;;
50483;SDS011;36409;52.168;20.878;2023-07-08T02:58:29;9.57;;;4.50;;
50483;SDS011;36409;52.168;20.878;2023-07-08T03:00:58;8.10;;;4.57;;
50483;SDS011;36409;52.168;20.878;2023-07-08T03:03:28;8.10;;;4.57;;
50483;SDS011;36409;52.168;20.878;2023-07-08T03:05:59;8.73;;;4.60;;
50483;SDS011;36409;52.168;20.878;2023-07-08T03:08:33;7.00;;;4.03;;
50483;SDS011;36409;52.168;20.878;2023-07-08T03:11:03;7.40;;;4.60;;
50483;SDS011;36409;52.168;20.878;2023-07-08T03:13:34;9.63;;;4.23;;
50483;SDS011;36409;52.168;20.878;2023-07-08T03:16:05;8.03;;;4.90;;
50483;SDS011;36409;52.168;20.878;2023-07-08T03:18:39;8.67;;;4.73;;
50483;SDS011;36409;52.168;20.878;2023-07-08T03:21:15;7.83;;;4.53;;
50483;SDS011;36409;52.168;20.878;2023-07-08T03:23:45;7.40;;;4.50;;
50483;SDS011;36409;52.168;20.878;2023-07-08T03:26:17;7.53;;;4.53;;
50483;SDS011;36409;52.168;20.878;2023-07-08T03:28:49;10.40;;;5.47;;
50483;SDS011;36409;52.168;20.878;2023-07-08T03:31:20;9.67;;;5.20;;
50483;SDS011;36409;52.168;20.878;2023-07-08T03:33:50;10.33;;;4.80;;
50483;SDS011;36409;52.168;20.878;2023-07-08T03:36:20;10.17;;;4.90;;
50483;SDS011;36409;52.168;20.878;2023-07-08T03:38:54;7.63;;;4.40;;
50483;SDS011;36409;52.168;20.878;2023-07-08T03:41:24;8.33;;;4.77;;
50483;SDS011;36409;52.168;20.878;2023-07-08T03:43:55;8.63;;;4.37;;
50483;SDS011;36409;52.168;20.878;2023-07-08T03:46:25;7.93;;;4.43;;
50483;SDS011;36409;52.168;20.878;2023-07-08T03:48:54;11.13;;;4.67;;
50483;SDS011;36409;52.168;20.878;2023-07-08T03:51:24;7.53;;;4.57;;
50483;SDS011;36409;52.168;20.878;2023-07-08T03:53:55;8.80;;;5.10;;
50483;SDS011;36409;52.168;20.878;2023-07-08T03:56:25;9.97;;;4.83;;
50483;SDS011;36409;52.168;20.878;2023-07-08T03:58:55;7.50;;;4.20;;
50483;SDS011;36409;52.168;20.878;2023-07-08T04:01:24;8.57;;;5.10;;
50483;SDS011;36409;52.168;20.878;2023-07-08T04:03:57;9.10;;;5.00;;
50483;SDS011;36409;52.168;20.878;2023-07-08T04:06:30;10.20;;;5.10;;
50483;SDS011;36409;52.168;20.878;2023-07-08T04:09:01;11.45;;;5.28;;
50483;SDS011;36409;52.168;20.878;2023-07-08T04:11:31;8.80;;;5.37;;
50483;SDS011;36409;52.168;20.878;2023-07-08T04:14:00;10.20;;;5.10;;
50483;SDS011;36409;52.168;20.878;2023-07-08T04:16:35;11.27;;;5.20;;
50483;SDS011;36409;52.168;20.878;2023-07-08T04:19:13;10.73;;;4.50;;
50483;SDS011;36409;52.168;20.878;2023-07-08T04:21:43;10.13;;;4.73;;
50483;SDS011;36409;52.168;20.878;2023-07-08T04:24:14;10.17;;;5.80;;
50483;SDS011;36409;52.168;20.878;2023-07-08T04:26:44;13.47;;;5.37;;
50483;SDS011;36409;52.168;20.878;2023-07-08T04:29:17;9.97;;;5.40;;
50483;SDS011;36409;52.168;20.878;2023-07-08T04:31:47;11.23;;;5.57;;
50483;SDS011;36409;52.168;20.878;2023-07-08T04:34:16;11.43;;;5.97;;
50483;SDS011;36409;52.168;20.878;2023-07-08T04:36:45;9.53;;;5.67;;
50483;SDS011;36409;52.168;20.878;2023-07-08T04:39:14;7.03;;;4.80;;
50483;SDS011;36409;52.168;20.878;2023-07-08T04:41:45;11.73;;;5.87;;
50483;SDS011;36409;52.168;20.878;2023-07-08T04:44:15;8.90;;;5.60;;
50483;SDS011;36409;52.168;20.878;2023-07-08T04:46:46;10.53;;;6.00;;
50483;SDS011;36409;52.168;20.878;2023-07-08T04:49:18;11.27;;;5.77;;
50483;SDS011;36409;52.168;20.878;2023-07-08T04:51:49;9.40;;;5.77;;
50483;SDS011;36409;52.168;20.878;2023-07-08T04:54:19;13.10;;;5.83;;
50483;SDS011;36409;52.168;20.878;2023-07-08T04:56:49;10.50;;;5.57;;
50483;SDS011;36409;52.168;20.878;2023-07-08T04:59:21;9.00;;;4.87;;
50483;SDS011;36409;52.168;20.878;2023-07-08T05:01:51;9.53;;;5.20;;
50483;SDS011;36409;52.168;20.878;2023-07-08T05:04:21;10.20;;;4.77;;
50483;SDS011;36409;52.168;20.878;2023-07-08T05:06:50;9.30;;;4.87;;
50483;SDS011;36409;52.168;20.878;2023-07-08T05:09:20;9.50;;;5.07;;
50483;SDS011;36409;52.168;20.878;2023-07-08T05:11:53;8.17;;;4.83;;
50483;SDS011;36409;52.168;20.878;2023-07-08T05:14:22;7.27;;;4.63;;
50483;SDS011;36409;52.168;20.878;2023-07-08T05:16:51;10.50;;;4.33;;
50483;SDS011;36409;52.168;20.878;2023-07-08T05:19:20;10.33;;;4.70;;
50483;SDS011;36409;52.168;20.878;2023-07-08T05:21:50;11.13;;;4.47;;
50483;SDS011;36409;52.168;20.878;2023-07-08T05:24:20;7.30;;;4.33;;
50483;SDS011;36409;52.168;20.878;2023-07-08T05:26:50;8.30;;;4.03;;
50483;SDS011;36409;52.168;20.878;2023-07-08T05:29:20;8.47;;;4.10;;
50483;SDS011;36409;52.168;20.878;2023-07-08T05:31:49;10.13;;;4.53;;
50483;SDS011;36409;52.168;20.878;2023-07-08T05:34:18;9.70;;;4.93;;
50483;SDS011;36409;52.168;20.878;2023-07-08T05:36:46;9.13;;;4.27;;
50483;SDS011;36409;52.168;20.878;2023-07-08T05:39:15;12.07;;;4.63;;
50483;SDS011;36409;52.168;20.878;2023-07-08T05:41:44;12.83;;;4.97;;
50483;SDS011;36409;52.168;20.878;2023-07-08T05:44:13;12.00;;;4.80;;
50483;SDS011;36409;52.168;20.878;2023-07-08T05:46:46;20.30;;;4.90;;
50483;SDS011;36409;52.168;20.878;2023-07-08T05:49:15;19.77;;;4.80;;
50483;SDS011;36409;52.168;20.878;2023-07-08T05:51:44;13.77;;;3.63;;
50483;SDS011;36409;52.168;20.878;2023-07-08T05:54:14;11.73;;;3.80;;
50483;SDS011;36409;52.168;20.878;2023-07-08T05:56:43;10.00;;;4.20;;
50483;SDS011;36409;52.168;20.878;2023-07-08T05:59:12;12.17;;;3.97;;
50483;SDS011;36409;52.168;20.878;2023-07-08T06:01:41;7.10;;;3.63;;
50483;SDS011;36409;52.168;20.878;2023-07-08T06:04:10;10.90;;;3.30;;
50483;SDS011;36409;52.168;20.878;2023-07-08T06:06:40;6.07;;;3.20;;
50483;SDS011;36409;52.168;20.878;2023-07-08T06:09:09;4.97;;;2.77;;
50483;SDS011;36409;52.168;20.878;2023-07-08T06:11:38;4.73;;;2.50;;
50483;SDS011;36409;52.168;20.878;2023-07-08T06:14:07;5.40;;;2.77;;
50483;SDS011;36409;52.168;20.878;2023-07-08T06:16:36;11.73;;;2.90;;
50483;SDS011;36409;52.168;20.878;2023-07-08T06:19:09;4.20;;;2.50;;
50483;SDS011;36409;52.168;20.878;2023-07-08T06:21:38;4.73;;;2.60;;
50483;SDS011;36409;52.168;20.878;2023-07-08T06:24:09;6.78;;;2.90;;
50483;SDS011;36409;52.168;20.878;2023-07-08T06:26:41;4.57;;;2.40;;
50483;SDS011;36409;52.168;20.878;2023-07-08T06:29:09;5.33;;;2.70;;
50483;SDS011;36409;52.168;20.878;2023-07-08T06:31:38;4.60;;;2.50;;
50483;SDS011;36409;52.168;20.878;2023-07-08T06:34:07;7.37;;;2.63;;
50483;SDS011;36409;52.168;20.878;2023-07-08T06:36:39;5.47;;;2.50;;
50483;SDS011;36409;52.168;20.878;2023-07-08T06:39:08;9.30;;;2.53;;
50483;SDS011;36409;52.168;20.878;2023-07-08T06:41:38;3.70;;;2.30;;
50483;SDS011;36409;52.168;20.878;2023-07-08T06:44:07;4.00;;;2.20;;
50483;SDS011;36409;52.168;20.878;2023-07-08T06:46:37;4.37;;;2.50;;
50483;SDS011;36409;52.168;20.878;2023-07-08T06:49:05;6.40;;;2.10;;
50483;SDS011;36409;52.168;20.878;2023-07-08T06:51:36;4.97;;;2.40;;
50483;SDS011;36409;52.168;20.878;2023-07-08T06:54:06;3.90;;;2.37;;
50483;SDS011;36409;52.168;20.878;2023-07-08T06:56:38;4.43;;;2.17;;
50483;SDS011;36409;52.168;20.878;2023-07-08T06:59:09;5.90;;;2.50;;
50483;SDS011;36409;52.168;20.878;2023-07-08T07:01:38;5.80;;;2.30;;
50483;SDS011;36409;52.168;20.878;2023-07-08T07:04:07;4.33;;;2.27;;
50483;SDS011;36409;52.168;20.878;2023-07-08T07:06:36;4.03;;;2.50;;
50483;SDS011;36409;52.168;20.878;2023-07-08T07:12:11;6.47;;;2.20;;
50483;SDS011;36409;52.168;20.878;2023-07-08T07:14:41;7.50;;;2.00;;
50483;SDS011;36409;52.168;20.878;2023-07-08T07:17:13;6.30;;;2.57;;
50483;SDS011;36409;52.168;20.878;2023-07-08T07:19:43;8.53;;;3.30;;
50483;SDS011;36409;52.168;20.878;2023-07-08T07:22:12;5.97;;;2.07;;
50483;SDS011;36409;52.168;20.878;2023-07-08T07:24:43;4.97;;;2.50;;
50483;SDS011;36409;52.168;20.878;2023-07-08T07:27:12;4.37;;;2.03;;
50483;SDS011;36409;52.168;20.878;2023-07-08T07:29:44;4.07;;;2.20;;
50483;SDS011;36409;52.168;20.878;2023-07-08T07:32:15;4.57;;;2.33;;
50483;SDS011;36409;52.168;20.878;2023-07-08T07:34:46;4.37;;;2.23;;
50483;SDS011;36409;52.168;20.878;2023-07-08T07:37:16;3.37;;;2.00;;
50483;SDS011;36409;52.168;20.878;2023-07-08T07:39:47;6.23;;;1.83;;
50483;SDS011;36409;52.168;20.878;2023-07-08T07:42:16;4.10;;;2.20;;
50483;SDS011;36409;52.168;20.878;2023-07-08T07:44:46;9.73;;;1.90;;
50483;SDS011;36409;52.168;20.878;2023-07-08T07:47:15;5.13;;;1.80;;
50483;SDS011;36409;52.168;20.878;2023-07-08T07:49:50;6.90;;;2.10;;
50483;SDS011;36409;52.168;20.878;2023-07-08T07:52:22;3.07;;;1.70;;
50483;SDS011;36409;52.168;20.878;2023-07-08T07:54:54;4.67;;;2.20;;
50483;SDS011;36409;52.168;20.878;2023-07-08T07:57:24;6.37;;;1.87;;
50483;SDS011;36409;52.168;20.878;2023-07-08T07:59:54;3.63;;;2.00;;
50483;SDS011;36409;52.168;20.878;2023-07-08T08:02:22;6.17;;;2.10;;
50483;SDS011;36409;52.168;20.878;2023-07-08T08:04:51;5.13;;;2.20;;
50483;SDS011;36409;52.168;20.878;2023-07-08T08:07:20;5.83;;;1.93;;
50483;SDS011;36409;52.168;20.878;2023-07-08T08:09:49;4.67;;;1.90;;
50483;SDS011;36409;52.168;20.878;2023-07-08T08:12:18;7.20;;;1.87;;
50483;SDS011;36409;52.168;20.878;2023-07-08T08:14:49;6.40;;;1.97;;
50483;SDS011;36409;52.168;20.878;2023-07-08T08:17:18;4.23;;;2.10;;
50483;SDS011;36409;52.168;20.878;2023-07-08T08:19:47;6.87;;;3.10;;
50483;SDS011;36409;52.168;20.878;2023-07-08T08:22:16;8.05;;;3.40;;
50483;SDS011;36409;52.168;20.878;2023-07-08T08:24:45;7.47;;;2.93;;
50483;SDS011;36409;52.168;20.878;2023-07-08T08:27:16;5.77;;;2.50;;
50483;SDS011;36409;52.168;20.878;2023-07-08T08:29:45;5.50;;;2.10;;
50483;SDS011;36409;52.168;20.878;2023-07-08T08:32:14;3.50;;;1.80;;
50483;SDS011;36409;52.168;20.878;2023-07-08T08:34:43;3.63;;;1.80;;
50483;SDS011;36409;52.168;20.878;2023-07-08T08:37:12;7.13;;;2.23;;
50483;SDS011;36409;52.168;20.878;2023-07-08T08:39:41;3.43;;;1.77;;
50483;SDS011;36409;52.168;20.878;2023-07-08T08:42:12;6.13;;;2.13;;
50483;SDS011;36409;52.168;20.878;2023-07-08T08:44:49;4.90;;;1.90;;
50483;SDS011;36409;52.168;20.878;2023-07-08T08:47:21;7.67;;;1.90;;
50483;SDS011;36409;52.168;20.878;2023-07-08T08:50:02;3.40;;;1.73;;
50483;SDS011;36409;52.168;20.878;2023-07-08T08:52:41;4.63;;;2.27;;
50483;SDS011;36409;52.168;20.878;2023-07-08T08:55:11;4.73;;;2.33;;
50483;SDS011;36409;52.168;20.878;2023-07-08T08:57:45;3.60;;;1.80;;
50483;SDS011;36409;52.168;20.878;2023-07-08T09:00:21;3.80;;;1.97;;
50483;SDS011;36409;52.168;20.878;2023-07-08T09:02:57;4.77;;;2.20;;
50483;SDS011;36409;52.168;20.878;2023-07-08T09:05:31;5.27;;;1.83;;
50483;SDS011;36409;52.168;20.878;2023-07-08T09:08:02;4.77;;;1.73;;
50483;SDS011;36409;52.168;20.878;2023-07-08T09:10:41;6.40;;;2.47;;
50483;SDS011;36409;52.168;20.878;2023-07-08T09:13:16;4.63;;;2.10;;
50483;SDS011;36409;52.168;20.878;2023-07-08T09:15:53;5.57;;;2.37;;
50483;SDS011;36409;52.168;20.878;2023-07-08T09:18:29;4.40;;;2.33;;
50483;SDS011;36409;52.168;20.878;2023-07-08T09:21:04;6.20;;;3.40;;
50483;SDS011;36409;52.168;20.878;2023-07-08T09:23:42;5.07;;;2.80;;
50483;SDS011;36409;52.168;20.878;2023-07-08T09:26:16;7.63;;;2.70;;
50483;SDS011;36409;52.168;20.878;2023-07-08T09:28:49;4.90;;;2.20;;
50483;SDS011;36409;52.168;20.878;2023-07-08T09:31:22;8.17;;;3.10;;
50483;SDS011;36409;52.168;20.878;2023-07-08T09:33:54;5.33;;;2.17;;
50483;SDS011;36409;52.168;20.878;2023-07-08T09:36:38;7.00;;;2.50;;
50483;SDS011;36409;52.168;20.878;2023-07-08T09:39:13;3.73;;;1.83;;
50483;SDS011;36409;52.168;20.878;2023-07-08T09:41:51;5.47;;;2.00;;
50483;SDS011;36409;52.168;20.878;2023-07-08T09:44:22;3.87;;;1.87;;
50483;SDS011;36409;52.168;20.878;2023-07-08T09:46:57;4.37;;;2.27;;
50483;SDS011;36409;52.168;20.878;2023-07-08T09:49:27;6.63;;;2.10;;
50483;SDS011;36409;52.168;20.878;2023-07-08T09:51:59;3.30;;;1.80;;
50483;SDS011;36409;52.168;20.878;2023-07-08T09:54:28;3.20;;;1.80;;
50483;SDS011;36409;52.168;20.878;2023-07-08T09:57:00;4.43;;;1.93;;
50483;SDS011;36409;52.168;20.878;2023-07-08T10:02:17;4.30;;;2.00;;
50483;SDS011;36409;52.168;20.878;2023-07-08T10:04:53;4.27;;;1.60;;
50483;SDS011;36409;52.168;20.878;2023-07-08T10:07:24;4.07;;;2.00;;
50483;SDS011;36409;52.168;20.878;2023-07-08T10:09:58;3.60;;;1.90;;
50483;SDS011;36409;52.168;20.878;2023-07-08T10:12:32;2.93;;;1.77;;
50483;SDS011;36409;52.168;20.878;2023-07-08T10:15:10;5.80;;;2.20;;
50483;SDS011;36409;52.168;20.878;2023-07-08T10:17:48;4.92;;;2.08;;
50483;SDS011;36409;52.168;20.878;2023-07-08T10:20:16;6.57;;;2.40;;
50483;SDS011;36409;52.168;20.878;2023-07-08T10:22:51;5.23;;;2.53;;
50483;SDS011;36409;52.168;20.878;2023-07-08T10:25:28;5.47;;;2.30;;
50483;SDS011;36409;52.168;20.878;2023-07-08T10:28:10;5.97;;;2.10;;
50483;SDS011;36409;52.168;20.878;2023-07-08T10:30:58;4.50;;;2.43;;
50483;SDS011;36409;52.168;20.878;2023-07-08T10:33:43;3.10;;;1.83;;
50483;SDS011;36409;52.168;20.878;2023-07-08T10:36:37;3.87;;;1.87;;
50483;SDS011;36409;52.168;20.878;2023-07-08T10:39:19;4.93;;;2.70;;
50483;SDS011;36409;52.168;20.878;2023-07-08T10:42:09;3.13;;;1.87;;
50483;SDS011;36409;52.168;20.878;2023-07-08T10:44:57;4.50;;;1.87;;
50483;SDS011;36409;52.168;20.878;2023-07-08T10:47:42;4.83;;;2.20;;
50483;SDS011;36409;52.168;20.878;2023-07-08T10:50:39;4.03;;;1.70;;
50483;SDS011;36409;52.168;20.878;2023-07-08T10:53:30;3.97;;;2.10;;
50483;SDS011;36409;52.168;20.878;2023-07-08T10:56:15;4.43;;;2.03;;
50483;SDS011;36409;52.168;20.878;2023-07-08T10:59:04;3.57;;;1.87;;
50483;SDS011;36409;52.168;20.878;2023-07-08T11:01:48;2.93;;;1.67;;
50483;SDS011;36409;52.168;20.878;2023-07-08T11:04:32;4.37;;;1.97;;
50483;SDS011;36409;52.168;20.878;2023-07-08T11:07:22;3.13;;;1.87;;
50483;SDS011;36409;52.168;20.878;2023-07-08T11:09:59;3.97;;;1.83;;
50483;SDS011;36409;52.168;20.878;2023-07-08T11:12:33;7.03;;;1.87;;
50483;SDS011;36409;52.168;20.878;2023-07-08T11:15:06;3.00;;;1.80;;
50483;SDS011;36409;52.168;20.878;2023-07-08T11:17:43;4.00;;;1.73;;
50483;SDS011;36409;52.168;20.878;2023-07-08T11:20:18;4.00;;;2.20;;
50483;SDS011;36409;52.168;20.878;2023-07-08T11:22:52;4.93;;;2.40;;
50483;SDS011;36409;52.168;20.878;2023-07-08T11:25:25;5.27;;;3.00;;
50483;SDS011;36409;52.168;20.878;2023-07-08T11:27:57;7.03;;;2.50;;
50483;SDS011;36409;52.168;20.878;2023-07-08T11:30:32;3.27;;;1.83;;
50483;SDS011;36409;52.168;20.878;2023-07-08T11:33:03;6.13;;;2.00;;
50483;SDS011;36409;52.168;20.878;2023-07-08T11:35:39;5.10;;;2.00;;
50483;SDS011;36409;52.168;20.878;2023-07-08T11:38:12;6.43;;;2.50;;
50483;SDS011;36409;52.168;20.878;2023-07-08T11:40:50;4.93;;;1.90;;
50483;SDS011;36409;52.168;20.878;2023-07-08T11:43:22;5.47;;;3.80;;
50483;SDS011;36409;52.168;20.878;2023-07-08T11:45:54;5.10;;;2.33;;
50483;SDS011;36409;52.168;20.878;2023-07-08T11:48:25;4.03;;;2.20;;
50483;SDS011;36409;52.168;20.878;2023-07-08T11:50:58;4.73;;;2.23;;
50483;SDS011;36409;52.168;20.878;2023-07-08T11:53:37;5.57;;;1.90;;
50483;SDS011;36409;52.168;20.878;2023-07-08T11:56:21;4.60;;;1.95;;
50483;SDS011;36409;52.168;20.878;2023-07-08T11:59:08;4.33;;;2.30;;
50483;SDS011;36409;52.168;20.878;2023-07-08T12:01:46;3.40;;;1.80;;
50483;SDS011;36409;52.168;20.878;2023-07-08T12:04:24;4.60;;;2.10;;
50483;SDS011;36409;52.168;20.878;2023-07-08T12:07:06;4.60;;;2.10;;
50483;SDS011;36409;52.168;20.878;2023-07-08T12:09:40;4.87;;;2.20;;
50483;SDS011;36409;52.168;20.878;2023-07-08T12:12:24;4.27;;;1.93;;
50483;SDS011;36409;52.168;20.878;2023-07-08T12:17:33;3.90;;;2.00;;
50483;SDS011;36409;52.168;20.878;2023-07-08T12:20:11;4.00;;;2.40;;
50483;SDS011;36409;52.168;20.878;2023-07-08T12:22:46;3.77;;;2.00;;
50483;SDS011;36409;52.168;20.878;2023-07-08T12:25:17;5.37;;;2.30;;
50483;SDS011;36409;52.168;20.878;2023-07-08T12:27:47;3.53;;;1.93;;
50483;SDS011;36409;52.168;20.878;2023-07-08T12:30:16;4.13;;;2.07;;
50483;SDS011;36409;52.168;20.878;2023-07-08T12:32:45;6.90;;;2.30;;
50483;SDS011;36409;52.168;20.878;2023-07-08T12:35:17;6.23;;;2.30;;
50483;SDS011;36409;52.168;20.878;2023-07-08T12:37:51;4.20;;;2.17;;
50483;SDS011;36409;52.168;20.878;2023-07-08T12:40:21;3.00;;;1.97;;
50483;SDS011;36409;52.168;20.878;2023-07-08T12:42:51;9.73;;;2.70;;
50483;SDS011;36409;52.168;20.878;2023-07-08T12:45:21;4.93;;;2.40;;
50483;SDS011;36409;52.168;20.878;2023-07-08T12:47:52;4.42;;;2.22;;
50483;SDS011;36409;52.168;20.878;2023-07-08T12:50:23;4.00;;;2.20;;
50483;SDS011;36409;52.168;20.878;2023-07-08T12:52:52;4.90;;;2.03;;
50483;SDS011;36409;52.168;20.878;2023-07-08T12:55:22;5.00;;;2.17;;
50483;SDS011;36409;52.168;20.878;2023-07-08T12:57:52;4.47;;;2.00;;
50483;SDS011;36409;52.168;20.878;2023-07-08T13:00:24;4.10;;;2.67;;
50483;SDS011;36409;52.168;20.878;2023-07-08T13:02:56;4.57;;;2.30;;
50483;SDS011;36409;52.168;20.878;2023-07-08T13:05:33;4.10;;;2.43;;
50483;SDS011;36409;52.168;20.878;2023-07-08T13:08:05;10.80;;;2.80;;
50483;SDS011;36409;52.168;20.878;2023-07-08T13:10:38;8.20;;;3.27;;
50483;SDS011;36409;52.168;20.878;2023-07-08T13:13:11;4.17;;;2.23;;
50483;SDS011;36409;52.168;20.878;2023-07-08T13:15:45;3.70;;;2.13;;
50483;SDS011;36409;52.168;20.878;2023-07-08T13:18:16;4.07;;;2.20;;
50483;SDS011;36409;52.168;20.878;2023-07-08T13:20:46;4.07;;;2.30;;
50483;SDS011;36409;52.168;20.878;2023-07-08T13:23:19;9.10;;;2.42;;
50483;SDS011;36409;52.168;20.878;2023-07-08T13:25:50;4.07;;;2.20;;
50483;SDS011;36409;52.168;20.878;2023-07-08T13:28:22;4.53;;;2.07;;
50483;SDS011;36409;52.168;20.878;2023-07-08T13:30:53;3.77;;;2.20;;
50483;SDS011;36409;52.168;20.878;2023-07-08T13:33:28;4.57;;;2.50;;
50483;SDS011;36409;52.168;20.878;2023-07-08T13:36:00;3.40;;;2.20;;
50483;SDS011;36409;52.168;20.878;2023-07-08T13:38:32;3.63;;;1.97;;
50483;SDS011;36409;52.168;20.878;2023-07-08T13:41:03;3.80;;;2.20;;
50483;SDS011;36409;52.168;20.878;2023-07-08T13:43:38;4.73;;;2.53;;
50483;SDS011;36409;52.168;20.878;2023-07-08T13:49:00;4.97;;;2.10;;
50483;SDS011;36409;52.168;20.878;2023-07-08T13:51:32;6.20;;;2.27;;
50483;SDS011;36409;52.168;20.878;2023-07-08T13:54:09;4.23;;;2.17;;
50483;SDS011;36409;52.168;20.878;2023-07-08T13:56:53;4.47;;;2.00;;
50483;SDS011;36409;52.168;20.878;2023-07-08T13:59:23;5.50;;;2.47;;
50483;SDS011;36409;52.168;20.878;2023-07-08T14:01:55;3.97;;;2.03;;
50483;SDS011;36409;52.168;20.878;2023-07-08T14:04:29;5.33;;;2.33;;
50483;SDS011;36409;52.168;20.878;2023-07-08T14:07:01;4.20;;;2.30;;
50483;SDS011;36409;52.168;20.878;2023-07-08T14:09:32;3.07;;;1.83;;
50483;SDS011;36409;52.168;20.878;2023-07-08T14:12:01;4.53;;;2.27;;
50483;SDS011;36409;52.168;20.878;2023-07-08T14:14:32;7.73;;;2.53;;
50483;SDS011;36409;52.168;20.878;2023-07-08T14:17:03;3.60;;;2.10;;
50483;SDS011;36409;52.168;20.878;2023-07-08T14:19:37;8.17;;;2.40;;
50483;SDS011;36409;52.168;20.878;2023-07-08T14:22:19;3.83;;;1.90;;
50483;SDS011;36409;52.168;20.878;2023-07-08T14:24:53;6.60;;;1.93;;
50483;SDS011;36409;52.168;20.878;2023-07-08T14:27:23;4.40;;;1.97;;
50483;SDS011;36409;52.168;20.878;2023-07-08T14:29:53;3.63;;;1.80;;
50483;SDS011;36409;52.168;20.878;2023-07-08T14:32:22;5.00;;;2.30;;
50483;SDS011;36409;52.168;20.878;2023-07-08T14:35:09;3.45;;;2.05;;
50483;SDS011;36409;52.168;20.878;2023-07-08T14:40:21;3.90;;;2.27;;
50483;SDS011;36409;52.168;20.878;2023-07-08T14:42:58;6.53;;;1.93;;
50483;SDS011;36409;52.168;20.878;2023-07-08T14:45:29;3.70;;;1.90;;
50483;SDS011;36409;52.168;20.878;2023-07-08T14:48:01;5.05;;;2.20;;
50483;SDS011;36409;52.168;20.878;2023-07-08T14:50:35;4.77;;;2.10;;
50483;SDS011;36409;52.168;20.878;2023-07-08T14:53:05;5.10;;;2.10;;
50483;SDS011;36409;52.168;20.878;2023-07-08T14:55:34;2.83;;;1.90;;
50483;SDS011;36409;52.168;20.878;2023-07-08T14:58:05;4.63;;;2.03;;
50483;SDS011;36409;52.168;20.878;2023-07-08T15:00:35;4.70;;;2.13;;
50483;SDS011;36409;52.168;20.878;2023-07-08T15:03:06;6.03;;;2.27;;
50483;SDS011;36409;52.168;20.878;2023-07-08T15:05:36;4.70;;;2.30;;
50483;SDS011;36409;52.168;20.878;2023-07-08T15:08:05;4.53;;;2.40;;
50483;SDS011;36409;52.168;20.878;2023-07-08T15:10:35;4.07;;;2.10;;
50483;SDS011;36409;52.168;20.878;2023-07-08T15:13:08;4.87;;;2.37;;
50483;SDS011;36409;52.168;20.878;2023-07-08T15:15:38;5.27;;;2.33;;
50483;SDS011;36409;52.168;20.878;2023-07-08T15:18:11;3.70;;;2.10;;